Time,TemperatureF,DewpointF,PressureIn,WindDirection,WindDirectionDegrees,WindSpeedMPH,WindSpeedGustMPH,Humidity,HourlyPrecipIn,Conditions,Clouds,dailyrainin,SoftwareType,DateUTC
2013-05-15 00:01:00,58.0,26.0,-100.00,NE,49,0.0,2.0,29,-99.99,,,-99.99,,2013-05-15 07:01:00,
2013-05-15 00:11:00,58.0,26.0,-100.00,NNE,12,0.0,1.0,29,-99.99,,,-99.99,,2013-05-15 07:11:00,
2013-05-15 00:21:00,59.0,25.0,-100.00,South,184,1.0,3.0,27,-99.99,,,-99.99,,2013-05-15 07:21:00,
2013-05-15 00:31:00,60.0,24.0,-100.00,South,191,2.0,4.0,25,-99.99,,,-99.99,,2013-05-15 07:31:00,
2013-05-15 00:41:00,60.0,22.0,-100.00,SSW,194,2.0,4.0,23,-99.99,,,-99.99,,2013-05-15 07:41:00,
2013-05-15 00:52:00,59.0,21.0,-100.00,SSW,197,2.0,4.0,23,-99.99,,,-99.99,,2013-05-15 07:52:00,
2013-05-15 01:02:00,60.0,20.0,-100.00,SSW,201,3.0,5.0,21,-99.99,,,-99.99,,2013-05-15 08:02:00,
2013-05-15 01:12:00,60.0,20.0,-100.00,SSW,201,3.0,5.0,21,-99.99,,,-99.99,,2013-05-15 08:12:00,
2013-05-15 01:31:00,60.0,19.0,-100.00,SSW,195,3.0,4.0,20,-99.99,,,-99.99,,2013-05-15 08:31:00,
2013-05-15 01:42:00,60.0,19.0,-100.00,SSW,196,5.0,5.0,20,-99.99,,,-99.99,,2013-05-15 08:42:00,
2013-05-15 01:52:00,60.0,19.0,-100.00,SSW,197,4.0,5.0,20,-99.99,,,-99.99,,2013-05-15 08:52:00,
2013-05-15 02:01:00,60.0,19.0,-100.00,SSW,198,4.0,5.0,20,-99.99,,,-99.99,,2013-05-15 09:01:00,
2013-05-15 02:11:00,59.0,18.0,-100.00,SSW,201,5.0,6.0,20,-99.99,,,-99.99,,2013-05-15 09:11:00,
2013-05-15 02:21:00,58.0,19.0,-100.00,SSW,204,5.0,5.0,22,-99.99,,,-99.99,,2013-05-15 09:21:00,
2013-05-15 02:32:00,58.0,20.0,-100.00,SSW,210,4.0,5.0,23,-99.99,,,-99.99,,2013-05-15 09:32:00,
2013-05-15 02:42:00,57.0,22.0,-100.00,SSW,195,3.0,5.0,25,-99.99,,,-99.99,,2013-05-15 09:42:00,
2013-05-15 02:53:00,56.0,22.0,-100.00,NNW,345,1.0,2.0,26,-99.99,,,-99.99,,2013-05-15 09:53:00,
2013-05-15 03:02:00,56.0,21.0,-100.00,North,349,0.0,2.0,25,-99.99,,,-99.99,,2013-05-15 10:02:00,
2013-05-15 03:12:00,56.0,21.0,-100.00,NE,52,1.0,2.0,25,-99.99,,,-99.99,,2013-05-15 10:12:00,
2013-05-15 03:22:00,55.0,20.0,-100.00,NNE,25,0.0,1.0,25,-99.99,,,-99.99,,2013-05-15 10:22:00,
2013-05-15 03:32:00,55.0,20.0,-100.00,NNE,19,0.0,1.0,25,-99.99,,,-99.99,,2013-05-15 10:32:00,
2013-05-15 03:42:00,56.0,21.0,-100.00,North,9,0.0,1.0,25,-99.99,,,-99.99,,2013-05-15 10:42:00,
2013-05-15 03:52:00,55.0,20.0,-100.00,NE,41,0.0,2.0,25,-99.99,,,-99.99,,2013-05-15 10:52:00,
2013-05-15 04:14:00,54.0,19.0,-100.00,East,81,0.0,2.0,25,-99.99,,,-99.99,,2013-05-15 11:14:00,
2013-05-15 04:24:00,54.0,19.0,-100.00,NW,326,1.0,3.0,25,-99.99,,,-99.99,,2013-05-15 11:24:00,
2013-05-15 04:33:00,55.0,19.0,-100.00,NE,55,1.0,5.0,24,-99.99,,,-99.99,,2013-05-15 11:33:00,
2013-05-15 04:44:00,55.0,19.0,-100.00,NNE,26,2.0,6.0,24,-99.99,,,-99.99,,2013-05-15 11:44:00,
2013-05-15 04:54:00,55.0,19.0,-100.00,North,350,1.0,4.0,24,-99.99,,,-99.99,,2013-05-15 11:54:00,
2013-05-15 05:04:00,55.0,19.0,-100.00,SW,231,1.0,3.0,24,-99.99,,,-99.99,,2013-05-15 12:04:00,
2013-05-15 05:12:00,55.0,19.0,-100.00,North,10,1.0,4.0,24,-99.99,,,-99.99,,2013-05-15 12:12:00,
2013-05-15 05:33:00,56.0,19.0,-100.00,ESE,109,0.0,2.0,23,-99.99,,,-99.99,,2013-05-15 12:33:00,
2013-05-15 05:44:00,56.0,19.0,-100.00,South,171,1.0,2.0,23,-99.99,,,-99.99,,2013-05-15 12:44:00,
2013-05-15 05:54:00,57.0,20.0,-100.00,North,8,0.0,2.0,23,-99.99,,,-99.99,,2013-05-15 12:54:00,
2013-05-15 06:14:00,56.0,21.0,-100.00,SE,145,0.0,2.0,25,-99.99,,,-99.99,,2013-05-15 13:14:00,
2013-05-15 06:34:00,55.0,21.0,-100.00,ENE,74,1.0,3.0,26,-99.99,,,-99.99,,2013-05-15 13:34:00,
2013-05-15 06:44:00,55.0,21.0,-100.00,ENE,74,1.0,3.0,26,-99.99,,,-99.99,,2013-05-15 13:44:00,
2013-05-15 06:54:00,57.0,22.0,-100.00,ENE,63,1.0,3.0,25,-99.99,,,-99.99,,2013-05-15 13:54:00,
2013-05-15 07:02:00,57.0,22.0,-100.00,ENE,60,1.0,2.0,26,-99.99,,,-99.99,,2013-05-15 14:02:00,
2013-05-15 07:12:00,58.0,23.0,-100.00,ENE,61,1.0,2.0,26,-99.99,,,-99.99,,2013-05-15 14:12:00,
2013-05-15 07:24:00,59.0,24.0,-100.00,ESE,104,1.0,3.0,26,-99.99,,,-99.99,,2013-05-15 14:24:00,
2013-05-15 07:34:00,59.0,24.0,-100.00,NE,37,1.0,2.0,26,-99.99,,,-99.99,,2013-05-15 14:34:00,
2013-05-15 07:52:00,61.0,25.0,-100.00,ENE,73,2.0,3.0,25,-99.99,,,-99.99,,2013-05-15 14:52:00,
2013-05-15 08:03:00,62.0,25.0,-100.00,East,79,2.0,3.0,24,-99.99,,,-99.99,,2013-05-15 15:03:00,
2013-05-15 08:12:00,63.0,26.0,-100.00,East,88,2.0,4.0,24,-99.99,,,-99.99,,2013-05-15 15:12:00,
2013-05-15 08:25:00,64.0,27.0,-100.00,East,95,2.0,3.0,25,-99.99,,,-99.99,,2013-05-15 15:25:00,
2013-05-15 08:35:00,65.0,30.0,-100.00,ESE,111,2.0,5.0,27,-99.99,,,-99.99,,2013-05-15 15:35:00,
2013-05-15 08:44:00,65.0,28.0,-100.00,ESE,121,4.0,6.0,25,-99.99,,,-99.99,,2013-05-15 15:44:00,
2013-05-15 08:55:00,66.0,24.0,-100.00,SSE,160,5.0,7.0,20,-99.99,,,-99.99,,2013-05-15 15:55:00,
2013-05-15 09:04:00,66.0,24.0,-100.00,South,173,5.0,8.0,20,-99.99,,,-99.99,,2013-05-15 16:04:00,
2013-05-15 09:16:00,67.0,26.0,-100.00,South,176,5.0,8.0,21,-99.99,,,-99.99,,2013-05-15 16:16:00,
2013-05-15 09:25:00,67.0,26.0,-100.00,South,186,4.0,7.0,21,-99.99,,,-99.99,,2013-05-15 16:25:00,
2013-05-15 09:34:00,68.0,27.0,-100.00,South,187,5.0,8.0,21,-99.99,,,-99.99,,2013-05-15 16:34:00,
2013-05-15 10:04:00,69.0,27.0,-100.00,South,183,5.0,9.0,21,-99.99,,,-99.99,,2013-05-15 17:04:00,
2013-05-15 10:14:00,69.0,27.0,-100.00,South,183,5.0,9.0,21,-99.99,,,-99.99,,2013-05-15 17:14:00,
2013-05-15 10:25:00,69.0,29.0,-100.00,South,183,7.0,11.0,22,-99.99,,,-99.99,,2013-05-15 17:25:00,
2013-05-15 10:32:00,69.0,29.0,-100.00,South,183,7.0,11.0,22,-99.99,,,-99.99,,2013-05-15 17:32:00,
2013-05-15 10:45:00,70.0,27.0,-100.00,South,182,7.0,11.0,20,-99.99,,,-99.99,,2013-05-15 17:45:00,
2013-05-15 10:54:00,70.0,28.0,-100.00,South,186,6.0,12.0,21,-99.99,,,-99.99,,2013-05-15 17:54:00,
2013-05-15 11:04:00,71.0,29.0,-100.00,SSW,194,5.0,13.0,21,-99.99,,,-99.99,,2013-05-15 18:04:00,
2013-05-15 11:13:00,71.0,29.0,-100.00,SSW,197,6.0,11.0,21,-99.99,,,-99.99,,2013-05-15 18:13:00,
2013-05-15 11:24:00,71.0,30.0,-100.00,SSW,200,5.0,10.0,22,-99.99,,,-99.99,,2013-05-15 18:24:00,
2013-05-15 11:34:00,71.0,29.0,-100.00,SSW,201,5.0,11.0,21,-99.99,,,-99.99,,2013-05-15 18:34:00,
2013-05-15 11:45:00,71.0,30.0,-100.00,SSW,201,5.0,13.0,22,-99.99,,,-99.99,,2013-05-15 18:45:00,
2013-05-15 11:54:00,71.0,30.0,-100.00,SSW,195,5.0,9.0,22,-99.99,,,-99.99,,2013-05-15 18:54:00,
2013-05-15 12:04:00,71.0,30.0,-100.00,SSW,195,5.0,9.0,22,-99.99,,,-99.99,,2013-05-15 19:04:00,
2013-05-15 12:13:00,72.0,35.0,-100.00,SSW,200,5.0,9.0,26,-99.99,,,-99.99,,2013-05-15 19:13:00,
2013-05-15 12:24:00,72.0,37.0,-100.00,SSW,199,5.0,13.0,28,-99.99,,,-99.99,,2013-05-15 19:24:00,
2013-05-15 12:34:00,71.0,40.0,-100.00,SSW,202,5.0,13.0,33,-99.99,,,-99.99,,2013-05-15 19:34:00,
2013-05-15 12:43:00,71.0,43.0,-100.00,SSW,209,5.0,11.0,37,-99.99,,,-99.99,,2013-05-15 19:43:00,
2013-05-15 12:54:00,71.0,43.0,-100.00,SW,228,5.0,12.0,37,-99.99,,,-99.99,,2013-05-15 19:54:00,
2013-05-15 13:02:00,71.0,43.0,-100.00,SW,228,5.0,12.0,37,-99.99,,,-99.99,,2013-05-15 20:02:00,
2013-05-15 13:13:00,72.0,45.0,-100.00,SSW,204,3.0,8.0,38,-99.99,,,-99.99,,2013-05-15 20:13:00,
2013-05-15 13:23:00,72.0,44.0,-100.00,SSW,205,5.0,13.0,37,-99.99,,,-99.99,,2013-05-15 20:23:00,
2013-05-15 13:44:00,72.0,44.0,-100.00,SSW,202,4.0,13.0,36,-99.99,,,-99.99,,2013-05-15 20:44:00,
2013-05-15 13:52:00,72.0,44.0,-100.00,SSW,201,4.0,11.0,36,-99.99,,,-99.99,,2013-05-15 20:52:00,
2013-05-15 14:03:00,71.0,44.0,-100.00,SW,219,5.0,11.0,38,-99.99,,,-99.99,,2013-05-15 21:03:00,
2013-05-15 14:14:00,72.0,44.0,-100.00,SSW,211,3.0,11.0,37,-99.99,,,-99.99,,2013-05-15 21:14:00,
2013-05-15 14:26:00,72.0,45.0,-100.00,SSW,199,3.0,9.0,38,-99.99,,,-99.99,,2013-05-15 21:26:00,
2013-05-15 14:36:00,72.0,46.0,-100.00,SSW,197,5.0,11.0,39,-99.99,,,-99.99,,2013-05-15 21:36:00,
2013-05-15 14:45:00,72.0,46.0,-100.00,SSW,206,4.0,9.0,39,-99.99,,,-99.99,,2013-05-15 21:45:00,
2013-05-15 14:55:00,72.0,46.0,-100.00,SSW,206,4.0,9.0,39,-99.99,,,-99.99,,2013-05-15 21:55:00,
2013-05-15 15:15:00,71.0,45.0,-100.00,SSW,209,3.0,10.0,39,-99.99,,,-99.99,,2013-05-15 22:15:00,
2013-05-15 15:27:00,73.0,46.0,-100.00,NW,309,3.0,7.0,38,-99.99,,,-99.99,,2013-05-15 22:27:00,
2013-05-15 15:35:00,72.0,44.0,-100.00,NW,319,3.0,10.0,36,-99.99,,,-99.99,,2013-05-15 22:35:00,
2013-05-15 15:47:00,71.0,43.0,-100.00,NW,325,3.0,9.0,36,-99.99,,,-99.99,,2013-05-15 22:47:00,
2013-05-15 15:53:00,72.0,43.0,-100.00,WSW,248,3.0,10.0,35,-99.99,,,-99.99,,2013-05-15 22:53:00,
2013-05-15 16:04:00,72.0,42.0,-100.00,WNW,297,3.0,9.0,34,-99.99,,,-99.99,,2013-05-15 23:04:00,
2013-05-15 16:13:00,73.0,43.0,-100.00,West,271,2.0,8.0,34,-99.99,,,-99.99,,2013-05-15 23:13:00,
2013-05-15 16:24:00,72.0,44.0,-100.00,SW,223,3.0,10.0,36,-99.99,,,-99.99,,2013-05-15 23:24:00,
2013-05-15 16:44:00,71.0,45.0,-100.00,WSW,243,3.0,8.0,39,-99.99,,,-99.99,,2013-05-15 23:44:00,
2013-05-15 16:53:00,71.0,44.0,-100.00,West,267,3.0,9.0,38,-99.99,,,-99.99,,2013-05-15 23:53:00,
2013-05-15 17:03:00,69.0,42.0,-100.00,West,260,4.0,11.0,38,-99.99,,,-99.99,,2013-05-16 00:03:00,
2013-05-15 17:15:00,69.0,40.0,-100.00,WSW,247,3.0,8.0,35,-99.99,,,-99.99,,2013-05-16 00:15:00,
2013-05-15 17:23:00,69.0,44.0,-100.00,SW,228,2.0,7.0,40,-99.99,,,-99.99,,2013-05-16 00:23:00,
2013-05-15 17:34:00,69.0,44.0,-100.00,SSW,194,3.0,8.0,41,-99.99,,,-99.99,,2013-05-16 00:34:00,
2013-05-15 17:53:00,68.0,44.0,-100.00,SW,229,2.0,7.0,42,-99.99,,,-99.99,,2013-05-16 00:53:00,
2013-05-15 18:04:00,68.0,45.0,-100.00,North,357,1.0,6.0,43,-99.99,,,-99.99,,2013-05-16 01:04:00,
2013-05-15 18:14:00,67.0,46.0,-100.00,SW,214,2.0,7.0,46,-99.99,,,-99.99,,2013-05-16 01:14:00,
2013-05-15 18:24:00,66.0,46.0,-100.00,SSW,197,2.0,5.0,49,-99.99,,,-99.99,,2013-05-16 01:24:00,
2013-05-15 18:33:00,66.0,47.0,-100.00,SSW,209,2.0,5.0,51,-99.99,,,-99.99,,2013-05-16 01:33:00,
2013-05-15 18:44:00,65.0,46.0,-100.00,SSW,203,2.0,5.0,51,-99.99,,,-99.99,,2013-05-16 01:44:00,
2013-05-15 18:54:00,64.0,47.0,-100.00,SSW,204,2.0,5.0,54,-99.99,,,-99.99,,2013-05-16 01:54:00,
2013-05-15 19:03:00,63.0,48.0,-100.00,SSW,211,2.0,5.0,57,-99.99,,,-99.99,,2013-05-16 02:03:00,
2013-05-15 19:13:00,62.0,48.0,-100.00,SW,221,3.0,5.0,60,-99.99,,,-99.99,,2013-05-16 02:13:00,
2013-05-15 19:26:00,62.0,48.0,-100.00,WSW,249,2.0,4.0,61,-99.99,,,-99.99,,2013-05-16 02:26:00,
2013-05-15 19:35:00,62.0,47.0,-100.00,WNW,299,3.0,5.0,59,-99.99,,,-99.99,,2013-05-16 02:35:00,
2013-05-15 19:42:00,62.0,47.0,-100.00,WNW,299,3.0,5.0,59,-99.99,,,-99.99,,2013-05-16 02:42:00,
2013-05-15 19:52:00,62.0,47.0,-100.00,WNW,299,3.0,5.0,59,-99.99,,,-99.99,,2013-05-16 02:52:00,
2013-05-15 20:02:00,62.0,46.0,-100.00,NW,307,4.0,6.0,55,-99.99,,,-99.99,,2013-05-16 03:02:00,
2013-05-15 20:14:00,60.0,47.0,-100.00,NW,312,4.0,6.0,62,-99.99,,,-99.99,,2013-05-16 03:14:00,
2013-05-15 20:22:00,61.0,45.0,-100.00,NW,316,3.0,4.0,56,-99.99,,,-99.99,,2013-05-16 03:22:00,
2013-05-15 20:33:00,61.0,46.0,-100.00,NW,322,3.0,4.0,57,-99.99,,,-99.99,,2013-05-16 03:33:00,
2013-05-15 20:44:00,62.0,35.0,-100.00,NW,304,2.0,4.0,36,-99.99,,,-99.99,,2013-05-16 03:44:00,
2013-05-15 20:54:00,62.0,33.0,-100.00,WNW,297,1.0,3.0,33,-99.99,,,-99.99,,2013-05-16 03:54:00,
2013-05-15 21:02:00,62.0,33.0,-100.00,NW,314,0.0,2.0,34,-99.99,,,-99.99,,2013-05-16 04:02:00,
2013-05-15 21:12:00,62.0,39.0,-100.00,NW,324,0.0,1.0,43,-99.99,,,-99.99,,2013-05-16 04:12:00,
2013-05-15 21:23:00,60.0,47.0,-100.00,North,-999,0.0,0.0,63,-99.99,,,-99.99,,2013-05-16 04:23:00,
2013-05-15 21:33:00,59.0,48.0,-100.00,SSE,151,0.0,1.0,67,-99.99,,,-99.99,,2013-05-16 04:33:00,
2013-05-15 21:42:00,58.0,46.0,-100.00,ESE,113,1.0,2.0,65,-99.99,,,-99.99,,2013-05-16 04:42:00,
2013-05-15 21:52:00,59.0,44.0,-100.00,ESE,121,1.0,4.0,58,-99.99,,,-99.99,,2013-05-16 04:52:00,
2013-05-15 22:02:00,58.0,42.0,-100.00,ESE,115,1.0,5.0,56,-99.99,,,-99.99,,2013-05-16 05:02:00,
2013-05-15 22:12:00,58.0,40.0,-100.00,ESE,111,1.0,3.0,52,-99.99,,,-99.99,,2013-05-16 05:12:00,
2013-05-15 22:22:00,59.0,40.0,-100.00,NNE,13,0.0,2.0,50,-99.99,,,-99.99,,2013-05-16 05:22:00,
2013-05-15 22:32:00,59.0,39.0,-100.00,NNW,348,0.0,2.0,48,-99.99,,,-99.99,,2013-05-16 05:32:00,
2013-05-15 22:42:00,59.0,38.0,-100.00,ENE,71,0.0,2.0,46,-99.99,,,-99.99,,2013-05-16 05:42:00,
2013-05-15 22:52:00,59.0,38.0,-100.00,SE,146,1.0,3.0,46,-99.99,,,-99.99,,2013-05-16 05:52:00,
2013-05-15 23:01:00,59.0,38.0,-100.00,SE,146,1.0,3.0,46,-99.99,,,-99.99,,2013-05-16 06:01:00,
2013-05-15 23:12:00,59.0,37.0,-100.00,SE,128,0.0,2.0,43,-99.99,,,-99.99,,2013-05-16 06:12:00,
2013-05-15 23:22:00,59.0,37.0,-100.00,SSW,202,0.0,1.0,44,-99.99,,,-99.99,,2013-05-16 06:22:00,
2013-05-15 23:33:00,59.0,37.0,-100.00,SSE,159,1.0,3.0,43,-99.99,,,-99.99,,2013-05-16 06:33:00,
2013-05-15 23:43:00,59.0,37.0,-100.00,South,183,1.0,3.0,43,-99.99,,,-99.99,,2013-05-16 06:43:00,
2013-05-15 23:52:00,61.0,36.0,-100.00,South,178,2.0,3.0,40,-99.99,,,-99.99,,2013-05-16 06:52:00,